Bookmark and Share
Track history (hours):
 

Berit

Last reported at 2014-Apr-24 03:31 UTC. Time now 2014-Apr-24 03:53 UTC.
Position N 58°57' E 005°45'.

Length 83 m; draft 5 m.

Type: Cargo ship. MMSI: 236386000.

NotesDate/timePositionNaut miles runAvg speedWind from/ knotsBaromVisibWave heightAir tempDewpointWater temp
2014-Apr-24 03:31N 58°57' E 005°45'0 0.0
2014-Apr-24 02:31N 58°57' E 005°45'0 0.0
2014-Apr-24 01:31N 58°57' E 005°45'0 0.0
2014-Apr-24 00:31N 58°57' E 005°45'0 0.0
2014-Apr-23 23:31N 58°57' E 005°45'0 0.0
2014-Apr-23 22:31N 58°57' E 005°45'0 0.0
2014-Apr-23 21:31N 58°57' E 005°45'0 0.0
2014-Apr-23 20:31N 58°57' E 005°45'0 0.0
2014-Apr-23 19:31N 58°57' E 005°45'0 0.0
2014-Apr-23 18:31N 58°57' E 005°45'0 0.0
2014-Apr-23 17:31N 58°57' E 005°45'0 0.0
2014-Apr-23 16:31N 58°57' E 005°45'0 0.0
2014-Apr-23 15:31N 58°57' E 005°45'0 0.0
2014-Apr-23 14:31N 58°57' E 005°45'0 0.0
2014-Apr-23 13:31N 58°57' E 005°45'0 0.0
2014-Apr-23 12:31N 58°57' E 005°45'0 0.0
2014-Apr-23 11:31N 58°57' E 005°45'0 0.0
2014-Apr-23 10:31N 58°57' E 005°45'0 0.0
2014-Apr-23 09:31N 58°57' E 005°45'0 0.0
2014-Apr-23 08:31N 58°57' E 005°45'0 0.0
2014-Apr-23 07:31N 58°57' E 005°45'0 0.2
2014-Apr-23 06:28N 58°57' E 005°45'0 0.0
2014-Apr-23 05:28N 58°57' E 005°45'0 0.0
2014-Apr-23 04:31N 58°57' E 005°45'0 0.0
2014-Apr-23 03:31N 58°57' E 005°45'0 0.0
2014-Apr-23 02:31N 58°57' E 005°45'0 0.0
2014-Apr-23 01:31N 58°57' E 005°45'0 0.0
2014-Apr-23 00:31N 58°57' E 005°45'0 0.0
2014-Apr-22 23:31N 58°57' E 005°45'0 0.0
2014-Apr-22 22:31N 58°57' E 005°45'0 0.0
2014-Apr-22 21:31N 58°57' E 005°45'0 0.0
2014-Apr-22 20:31N 58°57' E 005°45'0 0.0
2014-Apr-22 19:31N 58°57' E 005°45'0 0.0
2014-Apr-22 18:31N 58°57' E 005°45'0 0.0
2014-Apr-22 17:31N 58°57' E 005°45'0 0.0
2014-Apr-22 16:31N 58°57' E 005°45'0 0.0
2014-Apr-22 15:31N 58°57' E 005°45'0 0.2
2014-Apr-22 14:33N 58°57' E 005°46'5 4.6
2014-Apr-22 13:33N 59°01' E 005°42'6 6.1
2014-Apr-22 12:33N 58°57' E 005°33'7 7.2
2014-Apr-22 11:33N 58°51' E 005°25'1 1.2
2014-Apr-22 10:33N 58°51' E 005°23'0 0.5
2014-Apr-22 09:33N 58°51' E 005°23'0 0.4
2014-Apr-22 08:33N 58°50' E 005°24'4 4.1
2014-Apr-22 07:33N 58°46' E 005°24'16 8.0
2014-Apr-22 05:33N 58°31' E 005°35'10 9.7
2014-Apr-22 04:33N 58°24' E 005°48'1010.2
2014-Apr-22 03:34N 58°17' E 006°02'1110.6
2014-Apr-22 02:33N 58°10' E 006°17'13110.0
2014-Apr-21 13:33N 57°49' E 010°20'1010.4
2014-Apr-21 12:33N 57°48' E 010°40'6 6.3
2014-Apr-21 11:33N 57°42' E 010°37'1 0.7
2014-Apr-21 10:33N 57°42' E 010°36'2 2.3
2014-Apr-21 09:33N 57°42' E 010°40'1010.3
2014-Apr-21 08:33N 57°40' E 010°59'10 9.9
2014-Apr-21 07:33N 57°34' E 011°14'1010.3
2014-Apr-21 06:33N 57°26' E 011°27'1010.3
2014-Apr-21 05:33N 57°17' E 011°34'1010.3
2014-Apr-21 04:33N 57°07' E 011°41'1010.2
2014-Apr-21 03:33N 56°58' E 011°48'10 9.8
2014-Apr-21 02:30N 56°49' E 011°58'9 9.5
2014-Apr-21 01:33N 56°41' E 012°05'12 9.5
2014-Apr-21 00:19N 56°30' E 012°13'7 9.2
2014-Apr-20 23:33N 56°24' E 012°19'1010.3
2014-Apr-20 22:33N 56°14' E 012°26'1211.7
2014-Apr-20 21:33N 56°04' E 012°38'1010.4
2014-Apr-20 20:33N 55°55' E 012°44'1110.5
2014-Apr-20 19:33N 55°44' E 012°42'1110.9
2014-Apr-20 18:33N 55°33' E 012°42'10 9.7
2014-Apr-20 17:33N 55°24' E 012°42'8 7.7
2014-Apr-20 16:33N 55°17' E 012°48'9 9.5
2014-Apr-20 15:33N 55°15' E 013°05'10 9.6
2014-Apr-20 14:33N 55°15' E 013°22'10 9.7
2014-Apr-20 13:33N 55°15' E 013°39'1010.2
2014-Apr-20 12:33N 55°14' E 013°57'1010.4
2014-Apr-20 11:34N 55°14' E 014°15'10 9.7
2014-Apr-20 10:33N 55°21' E 014°26'9 9.2
2014-Apr-20 09:33N 55°27' E 014°39'10 9.8
2014-Apr-20 08:33N 55°27' E 014°56'1010.0
2014-Apr-20 07:33N 55°28' E 015°14'10 9.7
2014-Apr-20 06:33N 55°29' E 015°31'62 9.8
2014-Apr-20 00:17N 55°35' E 017°19'7 9.9
2014-Apr-19 23:33N 55°35' E 017°32'  
2014-Apr-17 17:33N 55°15' E 018°44'6 6.3
2014-Apr-17 16:33N 55°12' E 018°35'8 6.6
2014-Apr-17 15:23N 55°09' E 018°22'5 6.5
2014-Apr-17 14:33N 55°07' E 018°14'7 6.6
2014-Apr-17 13:33N 55°04' E 018°03'119 6.5
2014-Apr-16 19:17N 54°15' E 014°57'4 6.2
2014-Apr-16 18:33N 54°13' E 014°50'6 6.1
2014-Apr-16 17:33N 54°10' E 014°41'6 6.2
2014-Apr-16 16:33N 54°07' E 014°31'6 6.3
2014-Apr-16 15:33N 54°03' E 014°23'6 5.9
2014-Apr-16 14:33N 53°59' E 014°16'7 7.4
2014-Apr-16 13:33N 53°51' E 014°17'1010.2
2014-Apr-16 12:33N 53°43' E 014°27'1010.5
2014-Apr-16 11:33N 53°34' E 014°36'9 8.5
2014-Apr-16 10:30N 53°25' E 014°37'1 1.1
2014-Apr-16 09:28N 53°25' E 014°35'0 0.0
2014-Apr-16 07:19N 53°25' E 014°35'0 0.0
2014-Apr-16 06:34N 53°25' E 014°35'0 0.0
2014-Apr-16 05:04N 53°25' E 014°35'0 0.0
2014-Apr-16 04:34N 53°25' E 014°35'0 0.0
2014-Apr-16 03:22N 53°25' E 014°35'0 0.0
2014-Apr-16 02:34N 53°25' E 014°35'0 0.0
2014-Apr-15 20:04N 53°25' E 014°35'0 0.0
2014-Apr-15 17:28N 53°25' E 014°35'0 0.0
2014-Apr-15 16:28N 53°25' E 014°35'0 0.0
2014-Apr-15 15:34N 53°25' E 014°35'0 0.0
2014-Apr-15 14:33N 53°25' E 014°35'0 0.0
2014-Apr-15 12:34N 53°25' E 014°35'0 0.0
2014-Apr-15 11:34N 53°25' E 014°35'0 0.0
2014-Apr-15 09:31N 53°25' E 014°35'0 0.0
2014-Apr-15 06:31N 53°25' E 014°35'0 0.0
2014-Apr-14 11:33N 53°25' E 014°35'0 0.0
2014-Apr-14 10:33N 53°25' E 014°35'0 0.0
2014-Apr-14 08:33N 53°25' E 014°35'  

Dump ship's entire track history

sailing weather and tide predictions

Berit — ZDHX2 — position and weather